sensor_id;sensor_type;location;lat;lon;timestamp;P1;durP1;ratioP1;P2;durP2;ratioP2
33810;SDS011;20119;48.334;16.206;2023-08-08T00:25:55;3.28;;;2.30;;
33810;SDS011;20119;48.334;16.206;2023-08-08T00:30:52;4.25;;;2.10;;
33810;SDS011;20119;48.334;16.206;2023-08-08T00:33:22;5.33;;;2.57;;
33810;SDS011;20119;48.334;16.206;2023-08-08T00:35:51;2.42;;;2.10;;
33810;SDS011;20119;48.334;16.206;2023-08-08T00:38:34;3.47;;;2.10;;
33810;SDS011;20119;48.334;16.206;2023-08-08T00:41:07;2.50;;;2.30;;
33810;SDS011;20119;48.334;16.206;2023-08-08T00:43:37;2.20;;;2.00;;
33810;SDS011;20119;48.334;16.206;2023-08-08T00:46:09;3.63;;;2.47;;
33810;SDS011;20119;48.334;16.206;2023-08-08T00:48:42;2.55;;;2.20;;
33810;SDS011;20119;48.334;16.206;2023-08-08T00:51:18;2.33;;;2.05;;
33810;SDS011;20119;48.334;16.206;2023-08-08T00:56:40;3.58;;;2.40;;
33810;SDS011;20119;48.334;16.206;2023-08-08T01:48:47;7.18;;;2.40;;
33810;SDS011;20119;48.334;16.206;2023-08-08T02:04:19;3.58;;;2.22;;
33810;SDS011;20119;48.334;16.206;2023-08-08T02:07:01;3.10;;;2.53;;
33810;SDS011;20119;48.334;16.206;2023-08-08T05:08:16;3.25;;;1.88;;
33810;SDS011;20119;48.334;16.206;2023-08-08T05:10:46;2.72;;;1.80;;
33810;SDS011;20119;48.334;16.206;2023-08-08T05:13:14;2.72;;;1.83;;
33810;SDS011;20119;48.334;16.206;2023-08-08T05:15:44;2.40;;;1.63;;
33810;SDS011;20119;48.334;16.206;2023-08-08T05:18:15;2.17;;;1.80;;
33810;SDS011;20119;48.334;16.206;2023-08-08T05:20:45;2.10;;;1.80;;
33810;SDS011;20119;48.334;16.206;2023-08-08T05:23:16;1.92;;;1.55;;
33810;SDS011;20119;48.334;16.206;2023-08-08T05:25:46;2.80;;;2.00;;
33810;SDS011;20119;48.334;16.206;2023-08-08T05:28:23;4.40;;;1.80;;
33810;SDS011;20119;48.334;16.206;2023-08-08T05:30:51;2.42;;;1.88;;
33810;SDS011;20119;48.334;16.206;2023-08-08T05:33:20;3.50;;;1.85;;
33810;SDS011;20119;48.334;16.206;2023-08-08T05:35:53;2.25;;;1.80;;
33810;SDS011;20119;48.334;16.206;2023-08-08T05:38:24;2.78;;;1.92;;
33810;SDS011;20119;48.334;16.206;2023-08-08T05:40:54;2.53;;;1.70;;
33810;SDS011;20119;48.334;16.206;2023-08-08T05:43:24;2.37;;;1.57;;
33810;SDS011;20119;48.334;16.206;2023-08-08T05:45:54;2.58;;;1.75;;
33810;SDS011;20119;48.334;16.206;2023-08-08T05:48:29;2.45;;;1.80;;
33810;SDS011;20119;48.334;16.206;2023-08-08T05:51:00;1.98;;;1.45;;
33810;SDS011;20119;48.334;16.206;2023-08-08T05:53:32;3.33;;;1.60;;
33810;SDS011;20119;48.334;16.206;2023-08-08T05:56:03;3.20;;;1.67;;
33810;SDS011;20119;48.334;16.206;2023-08-08T06:01:02;1.90;;;1.50;;
33810;SDS011;20119;48.334;16.206;2023-08-08T06:03:37;1.92;;;1.60;;
33810;SDS011;20119;48.334;16.206;2023-08-08T06:06:10;3.00;;;1.60;;
33810;SDS011;20119;48.334;16.206;2023-08-08T06:08:41;3.00;;;1.63;;
33810;SDS011;20119;48.334;16.206;2023-08-08T06:11:11;2.08;;;1.50;;
33810;SDS011;20119;48.334;16.206;2023-08-08T06:13:55;1.60;;;1.40;;
33810;SDS011;20119;48.334;16.206;2023-08-08T06:16:29;3.55;;;1.50;;
33810;SDS011;20119;48.334;16.206;2023-08-08T06:21:38;1.98;;;1.27;;
33810;SDS011;20119;48.334;16.206;2023-08-08T06:24:32;1.52;;;1.33;;
33810;SDS011;20119;48.334;16.206;2023-08-08T06:27:09;1.70;;;1.52;;
33810;SDS011;20119;48.334;16.206;2023-08-08T06:30:01;1.48;;;1.38;;
33810;SDS011;20119;48.334;16.206;2023-08-08T06:35:35;2.28;;;1.35;;
33810;SDS011;20119;48.334;16.206;2023-08-08T06:38:13;3.50;;;1.38;;
33810;SDS011;20119;48.334;16.206;2023-08-08T06:40:47;1.87;;;1.40;;
33810;SDS011;20119;48.334;16.206;2023-08-08T06:43:23;1.92;;;1.00;;
33810;SDS011;20119;48.334;16.206;2023-08-08T06:45:52;2.40;;;1.33;;
33810;SDS011;20119;48.334;16.206;2023-08-08T06:48:27;2.08;;;1.27;;
33810;SDS011;20119;48.334;16.206;2023-08-08T06:50:59;1.38;;;1.27;;
33810;SDS011;20119;48.334;16.206;2023-08-08T06:53:28;4.13;;;1.53;;
33810;SDS011;20119;48.334;16.206;2023-08-08T06:56:05;2.63;;;1.23;;
33810;SDS011;20119;48.334;16.206;2023-08-08T06:58:42;1.88;;;1.30;;
33810;SDS011;20119;48.334;16.206;2023-08-08T07:01:18;1.60;;;1.25;;
33810;SDS011;20119;48.334;16.206;2023-08-08T07:06:18;3.00;;;1.30;;
33810;SDS011;20119;48.334;16.206;2023-08-08T07:08:52;1.73;;;1.40;;
33810;SDS011;20119;48.334;16.206;2023-08-08T07:11:27;2.90;;;1.63;;
33810;SDS011;20119;48.334;16.206;2023-08-08T07:14:01;3.03;;;1.40;;
33810;SDS011;20119;48.334;16.206;2023-08-08T07:16:38;2.38;;;1.45;;
33810;SDS011;20119;48.334;16.206;2023-08-08T13:52:06;1.55;;;1.00;;
33810;SDS011;20119;48.334;16.206;2023-08-08T13:54:35;1.30;;;1.00;;
33810;SDS011;20119;48.334;16.206;2023-08-08T13:57:03;1.63;;;1.10;;
33810;SDS011;20119;48.334;16.206;2023-08-08T15:46:22;1.30;;;1.00;;
33810;SDS011;20119;48.334;16.206;2023-08-08T15:48:50;2.20;;;1.02;;
33810;SDS011;20119;48.334;16.206;2023-08-08T15:51:17;0.95;;;0.82;;
33810;SDS011;20119;48.334;16.206;2023-08-08T15:53:44;2.70;;;1.10;;
33810;SDS011;20119;48.334;16.206;2023-08-08T15:56:12;2.08;;;1.15;;
33810;SDS011;20119;48.334;16.206;2023-08-08T15:58:39;1.85;;;1.10;;
33810;SDS011;20119;48.334;16.206;2023-08-08T16:01:06;1.15;;;0.93;;
33810;SDS011;20119;48.334;16.206;2023-08-08T16:03:34;4.28;;;1.25;;
33810;SDS011;20119;48.334;16.206;2023-08-08T16:06:01;3.25;;;1.25;;
33810;SDS011;20119;48.334;16.206;2023-08-08T16:08:29;1.73;;;1.05;;
33810;SDS011;20119;48.334;16.206;2023-08-08T16:10:56;2.42;;;1.30;;
33810;SDS011;20119;48.334;16.206;2023-08-08T16:13:23;2.15;;;1.10;;
33810;SDS011;20119;48.334;16.206;2023-08-08T16:15:50;2.17;;;1.00;;
33810;SDS011;20119;48.334;16.206;2023-08-08T16:18:17;3.42;;;1.10;;
33810;SDS011;20119;48.334;16.206;2023-08-08T16:20:46;1.65;;;1.00;;
33810;SDS011;20119;48.334;16.206;2023-08-08T16:23:14;1.88;;;1.30;;
33810;SDS011;20119;48.334;16.206;2023-08-08T16:25:42;1.77;;;1.13;;
33810;SDS011;20119;48.334;16.206;2023-08-08T16:28:09;1.75;;;1.20;;
33810;SDS011;20119;48.334;16.206;2023-08-08T16:30:36;2.28;;;1.10;;
33810;SDS011;20119;48.334;16.206;2023-08-08T16:36:01;1.67;;;1.50;;
33810;SDS011;20119;48.334;16.206;2023-08-08T16:50:19;2.60;;;1.70;;
33810;SDS011;20119;48.334;16.206;2023-08-08T16:52:51;3.22;;;1.83;;
33810;SDS011;20119;48.334;16.206;2023-08-08T16:55:19;9.63;;;3.50;;
33810;SDS011;20119;48.334;16.206;2023-08-08T17:00:28;5.47;;;2.10;;
33810;SDS011;20119;48.334;16.206;2023-08-08T17:05:49;2.97;;;1.48;;
33810;SDS011;20119;48.334;16.206;2023-08-08T17:11:13;4.73;;;2.00;;
33810;SDS011;20119;48.334;16.206;2023-08-08T18:08:22;3.40;;;1.52;;
33810;SDS011;20119;48.334;16.206;2023-08-08T18:31:49;1.83;;;1.60;;
33810;SDS011;20119;48.334;16.206;2023-08-08T18:34:19;3.67;;;1.58;;
33810;SDS011;20119;48.334;16.206;2023-08-08T18:42:19;2.22;;;1.50;;
33810;SDS011;20119;48.334;16.206;2023-08-08T18:44:56;2.22;;;1.75;;
33810;SDS011;20119;48.334;16.206;2023-08-08T18:50:12;1.95;;;1.65;;
33810;SDS011;20119;48.334;16.206;2023-08-08T19:03:11;3.05;;;1.90;;
33810;SDS011;20119;48.334;16.206;2023-08-08T19:08:20;4.40;;;1.60;;
33810;SDS011;20119;48.334;16.206;2023-08-08T19:10:52;3.03;;;1.80;;
33810;SDS011;20119;48.334;16.206;2023-08-08T19:13:23;2.28;;;1.58;;
33810;SDS011;20119;48.334;16.206;2023-08-08T19:15:53;3.08;;;1.92;;
33810;SDS011;20119;48.334;16.206;2023-08-08T19:18:25;3.45;;;2.00;;
33810;SDS011;20119;48.334;16.206;2023-08-08T19:20:55;2.05;;;1.80;;
33810;SDS011;20119;48.334;16.206;2023-08-08T19:23:27;3.08;;;2.10;;
33810;SDS011;20119;48.334;16.206;2023-08-08T19:26:03;2.70;;;1.75;;
33810;SDS011;20119;48.334;16.206;2023-08-08T19:28:36;2.72;;;2.17;;
33810;SDS011;20119;48.334;16.206;2023-08-08T19:51:53;2.60;;;1.77;;
33810;SDS011;20119;48.334;16.206;2023-08-08T19:54:25;2.83;;;1.80;;
33810;SDS011;20119;48.334;16.206;2023-08-08T20:10:18;2.58;;;2.08;;
33810;SDS011;20119;48.334;16.206;2023-08-08T20:12:52;4.57;;;2.30;;
33810;SDS011;20119;48.334;16.206;2023-08-08T20:20:34;3.15;;;2.40;;
33810;SDS011;20119;48.334;16.206;2023-08-08T20:43:49;3.08;;;2.60;;
33810;SDS011;20119;48.334;16.206;2023-08-08T21:01:57;3.63;;;3.13;;
33810;SDS011;20119;48.334;16.206;2023-08-08T21:04:25;3.70;;;2.92;;
33810;SDS011;20119;48.334;16.206;2023-08-08T21:06:54;4.10;;;3.20;;
33810;SDS011;20119;48.334;16.206;2023-08-08T21:19:47;3.33;;;2.75;;
33810;SDS011;20119;48.334;16.206;2023-08-08T21:22:19;3.42;;;2.95;;
33810;SDS011;20119;48.334;16.206;2023-08-08T21:40:25;3.53;;;2.70;;
33810;SDS011;20119;48.334;16.206;2023-08-08T21:42:54;3.20;;;2.90;;
33810;SDS011;20119;48.334;16.206;2023-08-08T21:45:24;4.07;;;2.83;;
33810;SDS011;20119;48.334;16.206;2023-08-08T21:47:53;4.70;;;3.30;;
33810;SDS011;20119;48.334;16.206;2023-08-08T21:50:25;3.45;;;3.00;;
33810;SDS011;20119;48.334;16.206;2023-08-08T21:58:10;3.70;;;3.22;;
33810;SDS011;20119;48.334;16.206;2023-08-08T22:29:46;4.15;;;3.58;;
33810;SDS011;20119;48.334;16.206;2023-08-08T22:32:16;4.32;;;3.50;;
33810;SDS011;20119;48.334;16.206;2023-08-08T22:34:48;5.43;;;3.72;;
33810;SDS011;20119;48.334;16.206;2023-08-08T22:58:23;4.93;;;4.00;;
33810;SDS011;20119;48.334;16.206;2023-08-08T23:37:12;3.72;;;3.28;;
